Airfield :
LOGIN :

Register | Disclaimer

   EN    FR    IT 

 










Legend :    VFR   Marginal VFR   IFR   Intensive IFR   Very Intensive IFR
Visi :
Ceiling :
>= 8 km
>= 3000ft
5 to 8 km
1000 to 3000 ft
1500m to 5 km
500 to 1000 ft
800 to 1500m
200 to 500 ft
< 800m
< 200 ft
Symbols :   Thunderstorms  Fog  Heavy snow  Heavy precipitations  Wind > 20 kt
SIGMETs :     Misc.  Thunderstorms  Icing  Turbulence  Mountain Waves  Volcanic Ashes







- Airport Elevation : 665 ft
- IATA code : NOC


EIKN - Connaught / Knock- Ireland West

CURRENT METAR :
  • 141430Z 29013KT 9000 -SHRA SCT017 BKN020CB 05/02 Q0988 NOSIG

EXPIRED METARs :
  • 141400Z 31010KT 270V330 9999 SCT020CB 05/01 Q0988 NOSIG
  • 141330Z 33015KT 9999 FEW015 FEW020CB 05/02 Q0987 NOSIG
  • 141300Z 33016G28KT 290V010 9999 FEW014 SCT020CB 04/02 Q0986 NOSIG
  • 141230Z 29015KT 7000 -SHRA SCT014 BKN020CB BKN038 04/03 Q0986 NOSIG
  • 141200Z 29014KT 9000 FEW014 FEW020CB SCT028 04/03 Q0985 NOSIG

TAF TAF EIKN
Valid from the 14 at 12:00 until the 15 at 12:00 UTC


141100Z 1412/1512 32016G27KT 9999 SCT010 BKN030
TEMPO 1412/1419 4000 SHRAGS BKN007 BKN016CB
BECMG 1413/1415 30012KT
PROB30
TEMPO 1415/1418 2000 TS BKN002
BECMG 1419/1421 33017G30KT
BECMG 1421/1424 34022G35KT
TEMPO 1421/1424 5000 -SHRA BKN010 FEW018CB
PROB40
TEMPO 1500/1505 34025G40KT
BECMG 1508/1510 34015KT
No reported NOTAMs for that airfield.
2 SIGMETs reported for the Shannon FIR (EISN) :
 
Severe turbulence
EISN SIGMET 10 VALID 141400/141700 EINN
EISN SHANNON FIR SEV TURB FCST WI N5140 W00930 - N5140 W00643 - N5100 W00800 - N5100 W00930 - N5140 W00930 SFC/FL060 STNR NC=
Severe turbulence
EISN SIGMET 09 VALID 141300/141700 EINN
EISN SHANNON FIR SEV TURB FCST WI N5432 W01000 - N5140 W01000 - N5140 W00930 - N5100 W00930 - N5100 W01500 - N5400 W01500 - N5432 W01000 SFC/FL060 STNR NC=



MET'MAP, your aeronautical weather chart ! - Copyright ORBIFLY December 2007 - Disclaimer

ORBIFLY MET'MAP TEAM :

Programming & Development : Alexandra Zaïnal
Concept & Development : Baudouin d'Aumeries
Co-Development & Prog : Marc-Olivier Méhu
Technical & hardware support : Manuel Goepfert

Contact : metmap@orbifly.com




SOURCES & CREDITS :

   NOAA